Aviation Digital Data Service (ADDS)

Output produced by METARs form (1030 UTC 19 February 2019)
found at http://www.aviationweather.gov/metar/data/
 
Forecast for: ZSNJ (NANJING/LUKOU , CN)
Text: TAF ZSNJ 190905Z 1912/2012 05003MPS 3000 BR BKN015 TX06/2006Z TN03/1921Z
Forecast period: 1200 to 1600 UTC 19 February 2019
Forecast type: FROM: standard forecast or significant change
Winds: from the NE (50 degrees) at 7 MPH (6 knots; 3.1 m/s)
Visibility: 1.86 miles (2.99 km)
Ceiling: 1500 feet AGL
Clouds: broken clouds at 1500 feet AGL
Weather: BR  (mist)
Text: BECMG 1916/1917 1600 -RA BR BKN008 OVC033
Forecast period: 1600 UTC 19 February 2019 to 1200 UTC 20 February 2019
Forecast type: BECOMING: Conditions expected to become as follows by 1700 UTC 19 February 2019
Winds: from the NE (50 degrees) at 7 MPH (6 knots; 3.1 m/s)
Visibility: 0.99 miles (1.59 km)
Ceiling: 800 feet AGL
Clouds: broken clouds at 800 feet AGL
overcast cloud deck at 3300 feet AGL
Weather: -RA BR  (light rain, mist)